Tabarka, Tunisia
Current Conditions -  °F | °C
As of 4:00 PM on Sunday 21 Dec 2014 (Local Time) from DTKA Reporting Station
Scattered Clouds Scattered Clouds  
Wind Chill: 63°   Ceiling: Unl
Heat Index: 63°   Visibility: 6mi
Dew Point: 48°   Wind: 13mph
Humidity: 59%   Direction: 290°WNW
Pressure: 30.39"   Gusts: NA
Location:  36.96°N, 8.75°E
Report Text: DTKA 211500Z 29011KT 9999 SCT020 17/09 Q1029 NOSIG
Loading
Personal Weather Stations






























Interactive Weather Map New forecast layout! Learn more

10-Day Weather Forecast

Advertisements
Track Severe Weather on mobile